FDX544 LTBS-UUWW
Flight info
| Callsign | FDX544 |
|---|---|
| Flight time | 3h 10m |
| Altitude | 38000 |
| Route | KFK HALIL W77 BAG SIN ODIRA G487 KEPOL AGO AGNAR N82 INBAL N82 RINGU N50 NEGLE |
| Aircraft | MD11/H-VGDW/C |
Departure
| Time | 2026-05-07 17:04 |
|---|---|
| Airport | Dalaman International Airport (LTBS) |
Arrival
| Time | 2026-05-07 20:14 |
|---|---|
| Airport | Vnukovo International Airport (UUWW) |
| Time | Latitude | Longitude | Altitude | Speed | Heading |
|---|---|---|---|---|---|
| 2026-05-07 16:48 | 36.71414 | 28.78958 | 25 ft | 0 kts | 101° |
| 2026-05-07 16:58 | 36.71414 | 28.78957 | 23 ft | 0 kts | 101° |
| 2026-05-07 16:59 | 36.71414 | 28.78958 | 23 ft | 0 kts | 101° |
| 2026-05-07 17:00 | 36.71412 | 28.78961 | 23 ft | 1 kts | 115° |
| 2026-05-07 17:00 | 36.71391 | 28.78999 | 26 ft | 10 kts | 131° |
| 2026-05-07 17:00 | 36.71301 | 28.79030 | 27 ft | 18 kts | 188° |
| 2026-05-07 17:00 | 36.71153 | 28.78980 | 24 ft | 26 kts | 195° |
| 2026-05-07 17:01 | 36.70960 | 28.78915 | 22 ft | 32 kts | 195° |
| 2026-05-07 17:01 | 36.70731 | 28.78837 | 25 ft | 37 kts | 194° |
| 2026-05-07 17:01 | 36.70473 | 28.78752 | 21 ft | 41 kts | 195° |
| 2026-05-07 17:01 | 36.70247 | 28.78675 | 20 ft | 35 kts | 196° |
| 2026-05-07 17:02 | 36.70097 | 28.78639 | 20 ft | 14 kts | 165° |
| 2026-05-07 17:02 | 36.70044 | 28.78750 | 18 ft | 16 kts | 94° |
| 2026-05-07 17:02 | 36.70070 | 28.78820 | 17 ft | 10 kts | 38° |
| 2026-05-07 17:02 | 36.70103 | 28.78836 | 18 ft | 0 kts | 19° |
| 2026-05-07 17:03 | 36.70253 | 28.78894 | 21 ft | 62 kts | 15° |
| 2026-05-07 17:03 | 36.70934 | 28.79121 | 26 ft | 138 kts | 15° |
| 2026-05-07 17:03 | 36.72056 | 28.79504 | 43 ft | 189 kts | 15° |
| 2026-05-07 17:03 | 36.73355 | 28.79945 | 596 ft | 191 kts | 15° |
| 2026-05-07 17:04 | 36.74582 | 28.80393 | 1472 ft | 184 kts | 24° |
| 2026-05-07 17:04 | 36.75603 | 28.81313 | 2268 ft | 181 kts | 39° |
| 2026-05-07 17:04 | 36.76579 | 28.82398 | 2730 ft | 198 kts | 38° |
| 2026-05-07 17:04 | 36.77678 | 28.83563 | 3002 ft | 215 kts | 36° |
| 2026-05-07 17:05 | 36.78833 | 28.84738 | 3461 ft | 214 kts | 37° |
| 2026-05-07 17:05 | 36.80005 | 28.85892 | 3951 ft | 214 kts | 36° |
| 2026-05-07 17:05 | 36.81190 | 28.87028 | 4423 ft | 219 kts | 36° |
| 2026-05-07 17:05 | 36.82443 | 28.88204 | 4769 ft | 233 kts | 36° |
| 2026-05-07 17:06 | 36.83761 | 28.89422 | 5155 ft | 239 kts | 34° |
| 2026-05-07 17:06 | 36.85129 | 28.90673 | 5370 ft | 251 kts | 34° |
| 2026-05-07 17:06 | 36.86578 | 28.91987 | 5479 ft | 264 kts | 34° |
| 2026-05-07 17:06 | 36.88118 | 28.93374 | 5696 ft | 280 kts | 34° |
| 2026-05-07 17:07 | 36.89676 | 28.94772 | 6658 ft | 269 kts | 34° |
| 2026-05-07 17:07 | 36.91150 | 28.96094 | 7731 ft | 255 kts | 34° |
| 2026-05-07 17:07 | 36.92586 | 28.97377 | 8363 ft | 261 kts | 34° |
| 2026-05-07 17:07 | 36.94132 | 28.98754 | 8515 ft | 285 kts | 34° |
| 2026-05-07 17:08 | 36.95771 | 29.00214 | 9089 ft | 292 kts | 34° |
| 2026-05-07 17:08 | 36.97436 | 29.01698 | 9794 ft | 296 kts | 35° |
| 2026-05-07 17:08 | 36.99124 | 29.03203 | 10345 ft | 305 kts | 34° |
| 2026-05-07 17:08 | 37.00917 | 29.04800 | 10462 ft | 327 kts | 34° |
| 2026-05-07 17:09 | 37.02826 | 29.06502 | 10592 ft | 347 kts | 34° |
| 2026-05-07 17:09 | 37.04818 | 29.08279 | 11095 ft | 354 kts | 34° |
| 2026-05-07 17:09 | 37.06839 | 29.10085 | 11687 ft | 360 kts | 34° |
| 2026-05-07 17:09 | 37.08888 | 29.11916 | 12308 ft | 364 kts | 33° |
| 2026-05-07 17:10 | 37.10963 | 29.13771 | 12935 ft | 368 kts | 33° |
| 2026-05-07 17:10 | 37.13058 | 29.15646 | 13583 ft | 372 kts | 33° |
| 2026-05-07 17:10 | 37.17330 | 29.19472 | 14726 ft | 379 kts | 32° |
| 2026-05-07 17:10 | 37.26050 | 29.27297 | 16920 ft | 391 kts | 32° |
| 2026-05-07 17:11 | 37.33770 | 29.34244 | 18670 ft | 404 kts | 32° |
| 2026-05-07 17:11 | 37.39747 | 29.39633 | 19868 ft | 411 kts | 32° |
| 2026-05-07 17:11 | 37.47663 | 29.46827 | 21413 ft | 420 kts | 32° |
| 2026-05-07 17:11 | 37.50033 | 29.48982 | 21856 ft | 423 kts | 32° |
| 2026-05-07 17:12 | 37.52426 | 29.51155 | 22291 ft | 425 kts | 32° |
| 2026-05-07 17:12 | 37.54839 | 29.53346 | 22731 ft | 428 kts | 32° |
| 2026-05-07 17:12 | 37.57260 | 29.55546 | 23175 ft | 430 kts | 32° |
| 2026-05-07 17:12 | 37.59695 | 29.57759 | 23660 ft | 432 kts | 32° |
| 2026-05-07 17:13 | 37.62142 | 29.59984 | 24016 ft | 435 kts | 32° |
| 2026-05-07 17:13 | 37.64602 | 29.62224 | 24414 ft | 436 kts | 32° |
| 2026-05-07 17:13 | 37.67070 | 29.64472 | 24778 ft | 439 kts | 32° |
| 2026-05-07 17:13 | 37.69552 | 29.66734 | 25144 ft | 441 kts | 32° |
| 2026-05-07 17:14 | 37.72045 | 29.69009 | 25511 ft | 443 kts | 32° |
| 2026-05-07 17:14 | 37.74555 | 29.71301 | 25866 ft | 446 kts | 32° |
| 2026-05-07 17:14 | 37.77074 | 29.73604 | 26190 ft | 448 kts | 32° |
| 2026-05-07 17:14 | 37.79575 | 29.75892 | 26548 ft | 450 kts | 32° |
| 2026-05-07 17:15 | 37.82115 | 29.78218 | 26913 ft | 452 kts | 32° |
| 2026-05-07 17:15 | 37.84666 | 29.80556 | 27235 ft | 454 kts | 32° |
| 2026-05-07 17:15 | 37.87229 | 29.82907 | 27567 ft | 456 kts | 32° |
| 2026-05-07 17:15 | 37.89801 | 29.85268 | 27926 ft | 457 kts | 32° |
| 2026-05-07 17:16 | 37.92386 | 29.87643 | 28237 ft | 460 kts | 32° |
| 2026-05-07 17:16 | 37.94980 | 29.90029 | 28558 ft | 462 kts | 32° |
| 2026-05-07 17:16 | 37.97584 | 29.92426 | 28906 ft | 463 kts | 32° |
| 2026-05-07 17:16 | 38.00195 | 29.94832 | 29218 ft | 465 kts | 32° |
| 2026-05-07 17:17 | 38.02823 | 29.97255 | 29520 ft | 467 kts | 32° |
| 2026-05-07 17:17 | 38.05463 | 29.99692 | 29820 ft | 469 kts | 32° |
| 2026-05-07 17:17 | 38.08072 | 30.02106 | 30123 ft | 471 kts | 32° |
| 2026-05-07 17:17 | 38.10725 | 30.04573 | 30402 ft | 474 kts | 32° |
| 2026-05-07 17:18 | 38.13388 | 30.07053 | 30682 ft | 475 kts | 32° |
| 2026-05-07 17:18 | 38.16062 | 30.09540 | 30977 ft | 476 kts | 32° |
| 2026-05-07 17:18 | 38.18736 | 30.12026 | 31325 ft | 475 kts | 31° |
| 2026-05-07 17:18 | 38.21396 | 30.14499 | 31716 ft | 473 kts | 31° |
| 2026-05-07 17:19 | 38.24051 | 30.16969 | 32042 ft | 472 kts | 31° |
| 2026-05-07 17:19 | 38.26703 | 30.19434 | 32346 ft | 471 kts | 31° |
| 2026-05-07 17:19 | 38.29347 | 30.21894 | 32677 ft | 470 kts | 31° |
| 2026-05-07 17:19 | 38.31985 | 30.24352 | 32987 ft | 469 kts | 31° |
| 2026-05-07 17:20 | 38.34622 | 30.26810 | 33281 ft | 469 kts | 31° |
| 2026-05-07 17:20 | 38.37253 | 30.29265 | 33559 ft | 469 kts | 31° |
| 2026-05-07 17:20 | 38.39884 | 30.31723 | 33835 ft | 468 kts | 31° |
| 2026-05-07 17:20 | 38.42474 | 30.34144 | 34101 ft | 468 kts | 31° |
| 2026-05-07 17:21 | 38.45094 | 30.36597 | 34360 ft | 466 kts | 31° |
| 2026-05-07 17:21 | 38.47705 | 30.39043 | 34575 ft | 465 kts | 31° |
| 2026-05-07 17:21 | 38.50316 | 30.41491 | 34822 ft | 464 kts | 30° |
| 2026-05-07 17:21 | 38.52912 | 30.43928 | 35008 ft | 464 kts | 30° |
| 2026-05-07 17:22 | 38.55513 | 30.46371 | 35198 ft | 463 kts | 30° |
| 2026-05-07 17:22 | 38.58105 | 30.48807 | 35393 ft | 463 kts | 31° |
| 2026-05-07 17:22 | 38.60700 | 30.51249 | 35549 ft | 463 kts | 30° |
| 2026-05-07 17:22 | 38.63295 | 30.53693 | 35693 ft | 463 kts | 30° |
| 2026-05-07 17:23 | 38.65892 | 30.56140 | 35859 ft | 463 kts | 31° |
| 2026-05-07 17:23 | 38.68483 | 30.58586 | 36010 ft | 463 kts | 31° |
| 2026-05-07 17:23 | 38.71038 | 30.61123 | 36146 ft | 466 kts | 35° |
| 2026-05-07 17:23 | 38.73348 | 30.64072 | 36286 ft | 473 kts | 45° |
| 2026-05-07 17:24 | 38.75257 | 30.67549 | 36456 ft | 481 kts | 54° |
| 2026-05-07 17:24 | 38.76817 | 30.71358 | 36576 ft | 484 kts | 59° |
| 2026-05-07 17:24 | 38.78228 | 30.75285 | 36699 ft | 485 kts | 60° |
| 2026-05-07 17:24 | 38.79613 | 30.79225 | 36847 ft | 485 kts | 60° |
| 2026-05-07 17:25 | 38.81027 | 30.83149 | 36964 ft | 484 kts | 59° |
| 2026-05-07 17:25 | 38.82475 | 30.87045 | 37098 ft | 484 kts | 59° |
| 2026-05-07 17:25 | 38.83950 | 30.90917 | 37235 ft | 483 kts | 58° |
| 2026-05-07 17:25 | 38.85438 | 30.94770 | 37358 ft | 482 kts | 58° |
| 2026-05-07 17:26 | 38.86937 | 30.98632 | 37528 ft | 482 kts | 58° |
| 2026-05-07 17:26 | 38.88429 | 31.02471 | 37661 ft | 481 kts | 58° |
| 2026-05-07 17:26 | 38.89917 | 31.06310 | 37802 ft | 480 kts | 58° |
| 2026-05-07 17:26 | 38.91380 | 31.10090 | 37941 ft | 479 kts | 58° |
| 2026-05-07 17:27 | 38.92858 | 31.13919 | 38137 ft | 477 kts | 58° |
| 2026-05-07 17:27 | 38.94337 | 31.17755 | 38174 ft | 479 kts | 58° |
| 2026-05-07 17:27 | 38.97301 | 31.25457 | 38195 ft | 482 kts | 58° |
| 2026-05-07 17:28 | 39.00275 | 31.33210 | 38184 ft | 484 kts | 58° |
| 2026-05-07 17:28 | 39.03250 | 31.40989 | 38179 ft | 485 kts | 58° |
| 2026-05-07 17:29 | 39.05721 | 31.47464 | 38181 ft | 485 kts | 58° |
| 2026-05-07 17:29 | 39.08690 | 31.55264 | 38187 ft | 485 kts | 58° |
| 2026-05-07 17:30 | 39.11648 | 31.63074 | 38173 ft | 486 kts | 59° |
| 2026-05-07 17:30 | 39.14587 | 31.70918 | 38183 ft | 486 kts | 59° |
| 2026-05-07 17:31 | 39.17528 | 31.78746 | 38175 ft | 485 kts | 58° |
| 2026-05-07 17:31 | 39.20472 | 31.86564 | 38186 ft | 485 kts | 59° |
| 2026-05-07 17:32 | 39.23396 | 31.94344 | 38175 ft | 485 kts | 59° |
| 2026-05-07 17:32 | 39.26334 | 32.02180 | 38174 ft | 485 kts | 59° |
| 2026-05-07 17:33 | 39.29265 | 32.10018 | 38180 ft | 485 kts | 59° |
| 2026-05-07 17:33 | 39.32195 | 32.17876 | 38180 ft | 486 kts | 59° |
| 2026-05-07 17:34 | 39.35123 | 32.25751 | 38177 ft | 486 kts | 59° |
| 2026-05-07 17:34 | 39.38470 | 32.33241 | 38175 ft | 476 kts | 46° |
| 2026-05-07 17:35 | 39.43178 | 32.39005 | 38179 ft | 462 kts | 28° |
| 2026-05-07 17:35 | 39.48834 | 32.42766 | 38184 ft | 456 kts | 19° |
| 2026-05-07 17:36 | 39.54600 | 32.46112 | 38183 ft | 457 kts | 20° |
| 2026-05-07 17:36 | 39.60329 | 32.49735 | 38182 ft | 459 kts | 22° |
| 2026-05-07 17:37 | 39.66022 | 32.53514 | 38180 ft | 459 kts | 22° |
| 2026-05-07 17:37 | 39.71707 | 32.57331 | 38176 ft | 459 kts | 23° |
| 2026-05-07 17:38 | 39.77391 | 32.61149 | 38179 ft | 460 kts | 23° |
| 2026-05-07 17:38 | 39.83078 | 32.64971 | 38175 ft | 460 kts | 23° |
| 2026-05-07 17:39 | 39.88769 | 32.68801 | 38173 ft | 459 kts | 23° |
| 2026-05-07 17:39 | 39.94408 | 32.72604 | 38170 ft | 459 kts | 23° |
| 2026-05-07 17:40 | 40.00082 | 32.76437 | 38176 ft | 459 kts | 23° |
| 2026-05-07 17:40 | 40.05756 | 32.80276 | 38180 ft | 459 kts | 23° |
| 2026-05-07 17:41 | 40.11237 | 32.84663 | 38159 ft | 465 kts | 33° |
| 2026-05-07 17:41 | 40.16155 | 32.90128 | 38156 ft | 468 kts | 37° |
| 2026-05-07 17:42 | 40.21038 | 32.95830 | 38165 ft | 468 kts | 37° |
| 2026-05-07 17:42 | 40.25915 | 33.01421 | 38159 ft | 468 kts | 36° |
| 2026-05-07 17:43 | 40.30839 | 33.07001 | 38166 ft | 468 kts | 36° |
| 2026-05-07 17:43 | 40.35760 | 33.12571 | 38169 ft | 469 kts | 37° |
| 2026-05-07 17:44 | 40.40710 | 33.18190 | 38154 ft | 469 kts | 37° |
| 2026-05-07 17:44 | 40.45641 | 33.23800 | 38159 ft | 469 kts | 37° |
| 2026-05-07 17:45 | 40.50558 | 33.29407 | 38168 ft | 469 kts | 37° |
| 2026-05-07 17:45 | 40.55464 | 33.35012 | 38167 ft | 469 kts | 37° |
| 2026-05-07 17:46 | 40.60389 | 33.40650 | 38157 ft | 469 kts | 37° |
| 2026-05-07 17:46 | 40.65322 | 33.46309 | 38151 ft | 468 kts | 37° |
| 2026-05-07 17:47 | 40.70221 | 33.51941 | 38149 ft | 468 kts | 37° |
| 2026-05-07 17:47 | 40.75118 | 33.57606 | 38146 ft | 468 kts | 37° |
| 2026-05-07 17:48 | 40.80000 | 33.63274 | 38149 ft | 468 kts | 37° |
| 2026-05-07 17:48 | 40.84896 | 33.68947 | 38148 ft | 468 kts | 37° |
| 2026-05-07 17:49 | 40.89808 | 33.74640 | 38166 ft | 468 kts | 37° |
| 2026-05-07 17:49 | 40.94686 | 33.80304 | 38153 ft | 467 kts | 37° |
| 2026-05-07 17:50 | 40.99578 | 33.85996 | 38142 ft | 467 kts | 37° |
| 2026-05-07 17:50 | 41.04441 | 33.91666 | 38154 ft | 467 kts | 38° |
| 2026-05-07 17:51 | 41.09313 | 33.97359 | 38146 ft | 468 kts | 37° |
| 2026-05-07 17:51 | 41.14206 | 34.03088 | 38148 ft | 469 kts | 38° |
| 2026-05-07 17:52 | 41.19101 | 34.08830 | 38151 ft | 470 kts | 38° |
| 2026-05-07 17:52 | 41.24004 | 34.14595 | 38139 ft | 471 kts | 38° |
| 2026-05-07 17:53 | 41.28911 | 34.20377 | 38139 ft | 471 kts | 38° |
| 2026-05-07 17:53 | 41.33784 | 34.26131 | 38135 ft | 470 kts | 38° |
| 2026-05-07 17:54 | 41.38656 | 34.31932 | 38141 ft | 469 kts | 38° |
| 2026-05-07 17:54 | 41.43513 | 34.37720 | 38142 ft | 468 kts | 38° |
| 2026-05-07 17:55 | 41.48327 | 34.43447 | 38154 ft | 469 kts | 38° |
| 2026-05-07 17:55 | 41.53195 | 34.49242 | 38143 ft | 469 kts | 38° |
| 2026-05-07 17:56 | 41.58067 | 34.55054 | 38140 ft | 470 kts | 38° |
| 2026-05-07 17:56 | 41.59706 | 34.57011 | 38147 ft | 470 kts | 38° |
| 2026-05-07 17:57 | 41.72456 | 34.72294 | 38151 ft | 469 kts | 38° |
| 2026-05-07 17:58 | 41.77309 | 34.78131 | 38160 ft | 469 kts | 39° |
| 2026-05-07 17:58 | 41.82133 | 34.83948 | 38156 ft | 469 kts | 39° |
| 2026-05-07 17:59 | 41.86987 | 34.89813 | 38158 ft | 470 kts | 39° |
| 2026-05-07 17:59 | 41.91822 | 34.95667 | 38166 ft | 470 kts | 39° |
| 2026-05-07 18:00 | 41.96675 | 35.01560 | 38168 ft | 470 kts | 39° |
| 2026-05-07 18:00 | 42.01504 | 35.07497 | 38169 ft | 471 kts | 41° |
| 2026-05-07 18:01 | 42.05572 | 35.14414 | 38180 ft | 478 kts | 57° |
| 2026-05-07 18:01 | 42.08528 | 35.22387 | 38169 ft | 480 kts | 62° |
| 2026-05-07 18:02 | 42.12859 | 35.34563 | 38170 ft | 480 kts | 60° |
| 2026-05-07 18:03 | 42.15861 | 35.42568 | 38214 ft | 479 kts | 60° |
| 2026-05-07 18:03 | 42.17368 | 35.46549 | 38443 ft | 475 kts | 60° |
| 2026-05-07 18:03 | 42.18867 | 35.50508 | 38666 ft | 472 kts | 60° |
| 2026-05-07 18:03 | 42.20352 | 35.54437 | 38866 ft | 469 kts | 60° |
| 2026-05-07 18:04 | 42.21807 | 35.58296 | 39060 ft | 466 kts | 60° |
| 2026-05-07 18:04 | 42.24737 | 35.66084 | 39170 ft | 466 kts | 60° |
| 2026-05-07 18:05 | 42.27670 | 35.73908 | 39185 ft | 468 kts | 61° |
| 2026-05-07 18:05 | 42.30618 | 35.81794 | 39185 ft | 471 kts | 61° |
| 2026-05-07 18:06 | 42.33576 | 35.89729 | 39187 ft | 474 kts | 61° |
| 2026-05-07 18:06 | 42.36523 | 35.97659 | 39190 ft | 476 kts | 61° |
| 2026-05-07 18:07 | 42.39497 | 36.05681 | 39189 ft | 478 kts | 61° |
| 2026-05-07 18:07 | 42.42462 | 36.13736 | 39189 ft | 479 kts | 62° |
| 2026-05-07 18:08 | 42.45404 | 36.21819 | 39189 ft | 479 kts | 62° |
| 2026-05-07 18:08 | 42.48343 | 36.29858 | 39192 ft | 479 kts | 62° |
| 2026-05-07 18:09 | 42.51307 | 36.37951 | 39198 ft | 480 kts | 62° |
| 2026-05-07 18:09 | 42.54273 | 36.46066 | 39195 ft | 480 kts | 62° |
| 2026-05-07 18:10 | 42.57234 | 36.54193 | 39198 ft | 481 kts | 62° |
| 2026-05-07 18:10 | 42.60191 | 36.62332 | 39197 ft | 481 kts | 62° |
| 2026-05-07 18:11 | 42.63142 | 36.70481 | 39195 ft | 481 kts | 62° |
| 2026-05-07 18:11 | 42.66068 | 36.78581 | 39194 ft | 481 kts | 62° |
| 2026-05-07 18:12 | 42.69005 | 36.86736 | 39197 ft | 481 kts | 62° |
| 2026-05-07 18:12 | 42.71941 | 36.94913 | 39199 ft | 481 kts | 62° |
| 2026-05-07 18:13 | 42.74683 | 37.03218 | 39201 ft | 482 kts | 65° |
| 2026-05-07 18:13 | 42.77214 | 37.11600 | 39201 ft | 482 kts | 66° |
| 2026-05-07 18:14 | 42.79753 | 37.20041 | 39203 ft | 482 kts | 66° |
| 2026-05-07 18:14 | 42.82311 | 37.28481 | 39206 ft | 482 kts | 66° |
| 2026-05-07 18:15 | 42.84872 | 37.36926 | 39205 ft | 482 kts | 66° |
| 2026-05-07 18:15 | 42.87426 | 37.45374 | 39200 ft | 482 kts | 66° |
| 2026-05-07 18:16 | 42.89958 | 37.53777 | 39210 ft | 482 kts | 66° |
| 2026-05-07 18:16 | 42.92500 | 37.62244 | 39204 ft | 482 kts | 66° |
| 2026-05-07 18:17 | 42.95035 | 37.70718 | 39207 ft | 482 kts | 66° |
| 2026-05-07 18:17 | 42.97564 | 37.79197 | 39207 ft | 482 kts | 66° |
| 2026-05-07 18:18 | 43.00044 | 37.87641 | 39207 ft | 482 kts | 67° |
| 2026-05-07 18:18 | 43.02537 | 37.96141 | 39203 ft | 482 kts | 67° |
| 2026-05-07 18:19 | 43.05344 | 38.04427 | 39202 ft | 480 kts | 58° |
| 2026-05-07 18:19 | 43.09431 | 38.11565 | 39207 ft | 476 kts | 42° |
| 2026-05-07 18:20 | 43.14738 | 38.16911 | 39206 ft | 474 kts | 27° |
| 2026-05-07 18:20 | 43.20675 | 38.20673 | 39195 ft | 474 kts | 22° |
| 2026-05-07 18:21 | 43.26772 | 38.24113 | 39197 ft | 474 kts | 22° |
| 2026-05-07 18:21 | 43.29822 | 38.25871 | 39073 ft | 476 kts | 22° |
| 2026-05-07 18:21 | 43.32862 | 38.27656 | 38904 ft | 475 kts | 22° |
| 2026-05-07 18:21 | 43.35883 | 38.29477 | 38625 ft | 473 kts | 25° |
| 2026-05-07 18:22 | 43.38763 | 38.31635 | 38353 ft | 471 kts | 31° |
| 2026-05-07 18:22 | 43.44144 | 38.36663 | 38211 ft | 466 kts | 35° |
| 2026-05-07 18:23 | 43.49432 | 38.41889 | 38204 ft | 470 kts | 35° |
| 2026-05-07 18:23 | 43.54750 | 38.47063 | 38203 ft | 472 kts | 34° |
| 2026-05-07 18:24 | 43.60156 | 38.52232 | 38203 ft | 473 kts | 34° |
| 2026-05-07 18:24 | 43.65621 | 38.57318 | 38203 ft | 474 kts | 33° |
| 2026-05-07 18:25 | 43.71104 | 38.62397 | 38201 ft | 474 kts | 33° |
| 2026-05-07 18:25 | 43.76573 | 38.67480 | 38200 ft | 473 kts | 33° |
| 2026-05-07 18:26 | 43.81991 | 38.72534 | 38201 ft | 472 kts | 33° |
| 2026-05-07 18:26 | 43.87423 | 38.77613 | 38200 ft | 472 kts | 34° |
| 2026-05-07 18:27 | 43.92865 | 38.82715 | 38197 ft | 473 kts | 34° |
| 2026-05-07 18:27 | 43.98307 | 38.87861 | 38200 ft | 473 kts | 34° |
| 2026-05-07 18:28 | 44.03708 | 38.92980 | 38200 ft | 473 kts | 34° |
| 2026-05-07 18:28 | 44.09147 | 38.98139 | 38200 ft | 473 kts | 34° |
| 2026-05-07 18:29 | 44.14567 | 39.03337 | 38200 ft | 473 kts | 36° |
| 2026-05-07 18:29 | 44.19714 | 39.09055 | 38198 ft | 473 kts | 40° |
| 2026-05-07 18:30 | 44.24731 | 39.15007 | 38201 ft | 474 kts | 40° |
| 2026-05-07 18:30 | 44.29723 | 39.20923 | 38197 ft | 474 kts | 40° |
| 2026-05-07 18:31 | 44.34761 | 39.26856 | 38196 ft | 474 kts | 40° |
| 2026-05-07 18:31 | 44.39801 | 39.32788 | 38200 ft | 474 kts | 40° |
| 2026-05-07 18:32 | 44.44839 | 39.38730 | 38192 ft | 474 kts | 40° |
| 2026-05-07 18:32 | 44.49843 | 39.44648 | 38189 ft | 474 kts | 40° |
| 2026-05-07 18:33 | 44.54896 | 39.50587 | 38184 ft | 472 kts | 39° |
| 2026-05-07 18:33 | 44.59935 | 39.56417 | 38186 ft | 471 kts | 39° |
| 2026-05-07 18:34 | 44.64994 | 39.62253 | 38183 ft | 472 kts | 39° |
| 2026-05-07 18:34 | 44.70044 | 39.68094 | 38179 ft | 473 kts | 39° |
| 2026-05-07 18:35 | 44.75118 | 39.73981 | 38176 ft | 473 kts | 39° |
| 2026-05-07 18:35 | 44.80211 | 39.79905 | 38176 ft | 473 kts | 39° |
| 2026-05-07 18:36 | 44.85243 | 39.85771 | 38175 ft | 473 kts | 39° |
| 2026-05-07 18:36 | 44.90271 | 39.91648 | 38168 ft | 473 kts | 39° |
| 2026-05-07 18:37 | 44.95323 | 39.97595 | 38166 ft | 473 kts | 39° |
| 2026-05-07 18:37 | 45.00374 | 40.03550 | 38167 ft | 473 kts | 39° |
| 2026-05-07 18:38 | 45.05427 | 40.09507 | 38167 ft | 473 kts | 39° |
| 2026-05-07 18:38 | 45.10451 | 40.15439 | 38159 ft | 473 kts | 39° |
| 2026-05-07 18:39 | 45.15504 | 40.21419 | 38164 ft | 473 kts | 39° |
| 2026-05-07 18:39 | 45.20552 | 40.27407 | 38164 ft | 474 kts | 39° |
| 2026-05-07 18:40 | 45.25602 | 40.33414 | 38159 ft | 474 kts | 39° |
| 2026-05-07 18:40 | 45.30648 | 40.39431 | 38157 ft | 474 kts | 39° |
| 2026-05-07 18:41 | 45.35681 | 40.45439 | 38151 ft | 473 kts | 39° |
| 2026-05-07 18:41 | 45.40697 | 40.51417 | 38150 ft | 472 kts | 39° |
| 2026-05-07 18:42 | 45.45857 | 40.57185 | 38157 ft | 472 kts | 36° |
| 2026-05-07 18:42 | 45.51137 | 40.62712 | 38151 ft | 472 kts | 36° |
| 2026-05-07 18:43 | 45.56432 | 40.68236 | 38149 ft | 472 kts | 36° |
| 2026-05-07 18:43 | 45.61714 | 40.73792 | 38148 ft | 471 kts | 36° |
| 2026-05-07 18:44 | 45.66963 | 40.79343 | 38143 ft | 471 kts | 36° |
| 2026-05-07 18:44 | 45.72203 | 40.84900 | 38141 ft | 471 kts | 36° |
| 2026-05-07 18:45 | 45.77479 | 40.90508 | 38143 ft | 471 kts | 36° |
| 2026-05-07 18:45 | 45.82743 | 40.96117 | 38143 ft | 471 kts | 36° |
| 2026-05-07 18:46 | 45.88000 | 41.01731 | 38137 ft | 472 kts | 36° |
| 2026-05-07 18:46 | 45.93252 | 41.07354 | 38133 ft | 473 kts | 36° |
| 2026-05-07 18:47 | 45.98524 | 41.13012 | 38129 ft | 473 kts | 36° |
| 2026-05-07 18:47 | 46.03781 | 41.18667 | 38129 ft | 473 kts | 36° |
| 2026-05-07 18:48 | 46.09041 | 41.24343 | 38126 ft | 474 kts | 36° |
| 2026-05-07 18:48 | 46.14274 | 41.30045 | 38119 ft | 474 kts | 36° |
| 2026-05-07 18:49 | 46.19526 | 41.35761 | 38115 ft | 474 kts | 36° |
| 2026-05-07 18:49 | 46.24773 | 41.41467 | 38112 ft | 474 kts | 36° |
| 2026-05-07 18:50 | 46.30037 | 41.47199 | 38114 ft | 473 kts | 36° |
| 2026-05-07 18:50 | 46.35269 | 41.52911 | 38105 ft | 472 kts | 36° |
| 2026-05-07 18:51 | 46.40504 | 41.58630 | 38110 ft | 472 kts | 36° |
| 2026-05-07 18:51 | 46.45723 | 41.64338 | 38105 ft | 472 kts | 36° |
| 2026-05-07 18:52 | 46.50965 | 41.70082 | 38096 ft | 472 kts | 36° |
| 2026-05-07 18:52 | 46.56189 | 41.75823 | 38099 ft | 472 kts | 36° |
| 2026-05-07 18:53 | 46.61427 | 41.81592 | 38096 ft | 473 kts | 36° |
| 2026-05-07 18:53 | 46.66677 | 41.87390 | 38089 ft | 473 kts | 36° |
| 2026-05-07 18:54 | 46.71894 | 41.93165 | 38086 ft | 473 kts | 36° |
| 2026-05-07 18:54 | 46.77114 | 41.98959 | 38085 ft | 473 kts | 36° |
| 2026-05-07 18:55 | 46.82332 | 42.04770 | 38084 ft | 472 kts | 37° |
| 2026-05-07 18:55 | 46.87569 | 42.10591 | 38078 ft | 472 kts | 37° |
| 2026-05-07 18:56 | 46.92766 | 42.16367 | 38075 ft | 472 kts | 36° |
| 2026-05-07 18:56 | 46.98000 | 42.22195 | 38074 ft | 472 kts | 36° |
| 2026-05-07 18:57 | 47.03201 | 42.28014 | 38069 ft | 473 kts | 37° |
| 2026-05-07 18:57 | 47.08414 | 42.33896 | 38067 ft | 472 kts | 37° |
| 2026-05-07 18:58 | 47.13592 | 42.39748 | 38064 ft | 471 kts | 37° |
| 2026-05-07 18:58 | 47.18792 | 42.45632 | 38060 ft | 470 kts | 37° |
| 2026-05-07 18:59 | 47.23965 | 42.51499 | 38054 ft | 470 kts | 37° |
| 2026-05-07 18:59 | 47.29122 | 42.57362 | 38050 ft | 470 kts | 37° |
| 2026-05-07 19:00 | 47.34368 | 42.63093 | 38049 ft | 470 kts | 32° |
| 2026-05-07 19:00 | 47.40193 | 42.67309 | 38047 ft | 467 kts | 17° |
| 2026-05-07 19:01 | 47.46509 | 42.69131 | 38040 ft | 466 kts | 3° |
| 2026-05-07 19:01 | 47.53012 | 42.68613 | 38038 ft | 467 kts | 351° |
| 2026-05-07 19:02 | 47.59323 | 42.66657 | 38031 ft | 467 kts | 347° |
| 2026-05-07 19:02 | 47.65639 | 42.64533 | 38031 ft | 464 kts | 348° |
| 2026-05-07 19:03 | 47.71949 | 42.62530 | 38032 ft | 465 kts | 348° |
| 2026-05-07 19:03 | 47.78293 | 42.60577 | 38030 ft | 466 kts | 348° |
| 2026-05-07 19:04 | 47.84649 | 42.58628 | 38018 ft | 466 kts | 349° |
| 2026-05-07 19:04 | 47.91007 | 42.56671 | 38022 ft | 467 kts | 348° |
| 2026-05-07 19:05 | 47.97389 | 42.54700 | 38019 ft | 469 kts | 348° |
| 2026-05-07 19:05 | 48.03737 | 42.52733 | 38019 ft | 469 kts | 348° |
| 2026-05-07 19:06 | 48.10123 | 42.50749 | 38018 ft | 468 kts | 348° |
| 2026-05-07 19:06 | 48.19676 | 42.47773 | 38015 ft | 467 kts | 349° |
| 2026-05-07 19:07 | 48.25901 | 42.45594 | 38007 ft | 467 kts | 345° |
| 2026-05-07 19:07 | 48.32134 | 42.42797 | 38007 ft | 468 kts | 343° |
| 2026-05-07 19:08 | 48.38349 | 42.39896 | 38005 ft | 468 kts | 343° |
| 2026-05-07 19:08 | 48.44572 | 42.37025 | 37996 ft | 468 kts | 343° |
| 2026-05-07 19:09 | 48.50752 | 42.34195 | 38002 ft | 467 kts | 343° |
| 2026-05-07 19:09 | 48.56976 | 42.31342 | 37999 ft | 467 kts | 343° |
| 2026-05-07 19:10 | 48.63200 | 42.28481 | 37995 ft | 467 kts | 343° |
| 2026-05-07 19:10 | 48.69424 | 42.25616 | 37996 ft | 467 kts | 343° |
| 2026-05-07 19:11 | 48.75644 | 42.22750 | 37991 ft | 467 kts | 343° |
| 2026-05-07 19:11 | 48.81856 | 42.19883 | 37997 ft | 467 kts | 343° |
| 2026-05-07 19:12 | 48.88036 | 42.17023 | 37992 ft | 467 kts | 343° |
| 2026-05-07 19:12 | 48.94253 | 42.14138 | 37993 ft | 467 kts | 343° |
| 2026-05-07 19:13 | 49.00477 | 42.11243 | 37990 ft | 468 kts | 343° |
| 2026-05-07 19:13 | 49.06768 | 42.08767 | 37991 ft | 467 kts | 350° |
| 2026-05-07 19:14 | 49.13148 | 42.07329 | 37989 ft | 467 kts | 353° |
| 2026-05-07 19:14 | 49.19597 | 42.06060 | 37993 ft | 467 kts | 353° |
| 2026-05-07 19:15 | 49.26048 | 42.04723 | 37989 ft | 468 kts | 352° |
| 2026-05-07 19:15 | 49.32497 | 42.03337 | 37991 ft | 468 kts | 352° |
| 2026-05-07 19:16 | 49.38944 | 42.01937 | 37985 ft | 468 kts | 352° |
| 2026-05-07 19:16 | 49.45348 | 42.00545 | 37988 ft | 468 kts | 352° |
| 2026-05-07 19:17 | 49.51806 | 41.99138 | 37988 ft | 469 kts | 352° |
| 2026-05-07 19:17 | 49.58273 | 41.97725 | 37988 ft | 469 kts | 352° |
| 2026-05-07 19:18 | 49.64695 | 41.96319 | 37982 ft | 469 kts | 352° |
| 2026-05-07 19:18 | 49.71149 | 41.94902 | 37985 ft | 468 kts | 352° |
| 2026-05-07 19:19 | 49.77608 | 41.93481 | 37983 ft | 469 kts | 352° |
| 2026-05-07 19:19 | 49.84079 | 41.92052 | 37983 ft | 470 kts | 352° |
| 2026-05-07 19:20 | 49.90528 | 41.90618 | 37986 ft | 470 kts | 352° |
| 2026-05-07 19:20 | 49.97006 | 41.89172 | 37982 ft | 470 kts | 352° |
| 2026-05-07 19:21 | 50.03434 | 41.87739 | 37981 ft | 470 kts | 352° |
| 2026-05-07 19:21 | 50.09919 | 41.86291 | 37977 ft | 472 kts | 352° |
| 2026-05-07 19:22 | 50.16421 | 41.84837 | 37979 ft | 472 kts | 352° |
| 2026-05-07 19:22 | 50.22897 | 41.83132 | 37979 ft | 472 kts | 348° |
| 2026-05-07 19:23 | 50.29261 | 41.80963 | 37979 ft | 471 kts | 347° |
| 2026-05-07 19:23 | 50.35659 | 41.78709 | 37980 ft | 472 kts | 347° |
| 2026-05-07 19:24 | 50.42071 | 41.76479 | 37980 ft | 472 kts | 347° |
| 2026-05-07 19:24 | 50.48488 | 41.74264 | 37980 ft | 472 kts | 347° |
| 2026-05-07 19:25 | 50.54855 | 41.72063 | 37977 ft | 472 kts | 347° |
| 2026-05-07 19:25 | 50.61266 | 41.69841 | 37976 ft | 472 kts | 347° |
| 2026-05-07 19:26 | 50.67677 | 41.67610 | 37977 ft | 472 kts | 347° |
| 2026-05-07 19:26 | 50.74076 | 41.65367 | 37974 ft | 472 kts | 347° |
| 2026-05-07 19:27 | 50.80450 | 41.63130 | 37974 ft | 472 kts | 347° |
| 2026-05-07 19:27 | 50.86857 | 41.60880 | 37974 ft | 472 kts | 347° |
| 2026-05-07 19:28 | 50.93258 | 41.58627 | 37971 ft | 472 kts | 347° |
| 2026-05-07 19:28 | 50.99679 | 41.56360 | 37971 ft | 472 kts | 347° |
| 2026-05-07 19:29 | 51.06090 | 41.54091 | 37969 ft | 472 kts | 347° |
| 2026-05-07 19:29 | 51.12464 | 41.51828 | 37969 ft | 472 kts | 347° |
| 2026-05-07 19:30 | 51.18872 | 41.49546 | 37968 ft | 472 kts | 347° |
| 2026-05-07 19:30 | 51.25280 | 41.47258 | 37974 ft | 472 kts | 347° |
| 2026-05-07 19:31 | 51.31676 | 41.44968 | 37975 ft | 472 kts | 347° |
| 2026-05-07 19:31 | 51.38062 | 41.42674 | 37968 ft | 472 kts | 347° |
| 2026-05-07 19:32 | 51.43436 | 41.40739 | 37972 ft | 472 kts | 347° |
| 2026-05-07 19:32 | 51.49839 | 41.38422 | 37969 ft | 472 kts | 347° |
| 2026-05-07 19:33 | 51.56189 | 41.36106 | 37968 ft | 472 kts | 347° |
| 2026-05-07 19:33 | 51.62607 | 41.33768 | 37969 ft | 472 kts | 347° |
| 2026-05-07 19:34 | 51.68892 | 41.30741 | 37966 ft | 471 kts | 334° |
| 2026-05-07 19:34 | 51.74400 | 41.25162 | 37969 ft | 470 kts | 322° |
| 2026-05-07 19:35 | 51.79566 | 41.18714 | 37971 ft | 471 kts | 322° |
| 2026-05-07 19:35 | 51.84819 | 41.12400 | 37971 ft | 471 kts | 324° |
| 2026-05-07 19:36 | 51.90131 | 41.06241 | 37969 ft | 471 kts | 324° |
| 2026-05-07 19:36 | 51.95458 | 41.00115 | 37969 ft | 470 kts | 324° |
| 2026-05-07 19:37 | 52.00792 | 40.93960 | 37968 ft | 470 kts | 324° |
| 2026-05-07 19:37 | 52.06233 | 40.88135 | 37969 ft | 470 kts | 329° |
| 2026-05-07 19:38 | 52.11893 | 40.82900 | 37969 ft | 470 kts | 330° |
| 2026-05-07 19:38 | 52.17606 | 40.77724 | 37969 ft | 470 kts | 330° |
| 2026-05-07 19:39 | 52.23309 | 40.72491 | 37965 ft | 470 kts | 330° |
| 2026-05-07 19:39 | 52.28960 | 40.67256 | 37965 ft | 469 kts | 330° |
| 2026-05-07 19:40 | 52.34637 | 40.61971 | 37964 ft | 469 kts | 329° |
| 2026-05-07 19:40 | 52.40269 | 40.56703 | 37964 ft | 469 kts | 329° |
| 2026-05-07 19:41 | 52.45931 | 40.51406 | 37967 ft | 469 kts | 329° |
| 2026-05-07 19:41 | 52.51600 | 40.46100 | 37962 ft | 468 kts | 329° |
| 2026-05-07 19:42 | 52.57232 | 40.40839 | 37963 ft | 468 kts | 329° |
| 2026-05-07 19:42 | 52.62904 | 40.35534 | 37958 ft | 469 kts | 329° |
| 2026-05-07 19:43 | 52.68568 | 40.30223 | 37959 ft | 469 kts | 329° |
| 2026-05-07 19:43 | 52.74191 | 40.24934 | 37960 ft | 468 kts | 329° |
| 2026-05-07 19:44 | 52.79849 | 40.19596 | 37963 ft | 467 kts | 329° |
| 2026-05-07 19:44 | 52.85476 | 40.14252 | 37957 ft | 467 kts | 329° |
| 2026-05-07 19:45 | 52.91093 | 40.08890 | 37958 ft | 467 kts | 329° |
| 2026-05-07 19:45 | 52.96705 | 40.03529 | 37958 ft | 466 kts | 329° |
| 2026-05-07 19:46 | 53.02330 | 39.98145 | 37959 ft | 466 kts | 329° |
| 2026-05-07 19:46 | 53.07922 | 39.92778 | 37958 ft | 466 kts | 329° |
| 2026-05-07 19:47 | 53.13517 | 39.87391 | 37953 ft | 466 kts | 329° |
| 2026-05-07 19:47 | 53.19102 | 39.81998 | 37956 ft | 466 kts | 329° |
| 2026-05-07 19:48 | 53.24723 | 39.76553 | 37955 ft | 465 kts | 329° |
| 2026-05-07 19:48 | 53.30287 | 39.71147 | 37956 ft | 465 kts | 329° |
| 2026-05-07 19:49 | 53.35901 | 39.65675 | 37953 ft | 465 kts | 328° |
| 2026-05-07 19:49 | 53.41528 | 39.60366 | 37952 ft | 465 kts | 331° |
| 2026-05-07 19:50 | 53.47261 | 39.55452 | 37949 ft | 462 kts | 332° |
| 2026-05-07 19:50 | 53.52992 | 39.50638 | 37944 ft | 462 kts | 332° |
| 2026-05-07 19:51 | 53.58724 | 39.45787 | 37944 ft | 462 kts | 332° |
| 2026-05-07 19:51 | 53.64433 | 39.40922 | 37944 ft | 461 kts | 332° |
| 2026-05-07 19:52 | 53.70124 | 39.36052 | 37938 ft | 461 kts | 332° |
| 2026-05-07 19:52 | 53.75804 | 39.31176 | 37939 ft | 461 kts | 331° |
| 2026-05-07 19:53 | 53.81516 | 39.26259 | 37943 ft | 461 kts | 331° |
| 2026-05-07 19:53 | 53.87228 | 39.21321 | 37944 ft | 461 kts | 331° |
| 2026-05-07 19:54 | 53.92930 | 39.16348 | 37939 ft | 461 kts | 331° |
| 2026-05-07 19:54 | 53.98591 | 39.11406 | 37931 ft | 461 kts | 331° |
| 2026-05-07 19:55 | 54.04296 | 39.06425 | 37931 ft | 461 kts | 331° |
| 2026-05-07 19:55 | 54.10000 | 39.01432 | 37932 ft | 461 kts | 331° |
| 2026-05-07 19:56 | 54.15674 | 38.96450 | 37927 ft | 461 kts | 331° |
| 2026-05-07 19:56 | 54.21324 | 38.91474 | 37931 ft | 461 kts | 331° |
| 2026-05-07 19:57 | 54.26735 | 38.85717 | 37932 ft | 458 kts | 321° |
| 2026-05-07 19:57 | 54.31701 | 38.78895 | 37928 ft | 457 kts | 319° |
| 2026-05-07 19:58 | 54.36613 | 38.71961 | 37929 ft | 457 kts | 319° |
| 2026-05-07 19:58 | 54.41527 | 38.65129 | 37913 ft | 444 kts | 319° |
| 2026-05-07 19:59 | 54.43879 | 38.61883 | 37911 ft | 423 kts | 319° |
| 2026-05-07 19:59 | 54.46122 | 38.58791 | 37922 ft | 407 kts | 319° |
| 2026-05-07 19:59 | 54.50458 | 38.52792 | 37926 ft | 400 kts | 319° |
| 2026-05-07 20:00 | 54.54784 | 38.46782 | 37926 ft | 399 kts | 319° |
| 2026-05-07 20:00 | 54.59154 | 38.40692 | 37164 ft | 415 kts | 319° |
| 2026-05-07 20:01 | 54.61410 | 38.37541 | 36093 ft | 419 kts | 319° |
| 2026-05-07 20:01 | 54.63689 | 38.34356 | 35083 ft | 422 kts | 320° |
| 2026-05-07 20:01 | 54.65973 | 38.31162 | 34166 ft | 423 kts | 319° |
| 2026-05-07 20:01 | 54.68255 | 38.27966 | 33233 ft | 421 kts | 319° |
| 2026-05-07 20:02 | 54.70498 | 38.24822 | 32309 ft | 419 kts | 319° |
| 2026-05-07 20:02 | 54.72758 | 38.21647 | 31400 ft | 418 kts | 319° |
| 2026-05-07 20:02 | 54.75013 | 38.18474 | 30520 ft | 416 kts | 319° |
| 2026-05-07 20:02 | 54.77261 | 38.15307 | 29605 ft | 414 kts | 319° |
| 2026-05-07 20:03 | 54.79497 | 38.12151 | 28625 ft | 413 kts | 319° |
| 2026-05-07 20:03 | 54.81719 | 38.09008 | 27680 ft | 411 kts | 319° |
| 2026-05-07 20:03 | 54.83901 | 38.05919 | 26774 ft | 409 kts | 318° |
| 2026-05-07 20:03 | 54.86102 | 38.02799 | 25885 ft | 406 kts | 318° |
| 2026-05-07 20:04 | 54.88284 | 37.99698 | 25039 ft | 404 kts | 317° |
| 2026-05-07 20:04 | 54.90473 | 37.96550 | 24203 ft | 411 kts | 317° |
| 2026-05-07 20:04 | 54.92674 | 37.93375 | 23364 ft | 407 kts | 317° |
| 2026-05-07 20:04 | 54.94852 | 37.90242 | 22408 ft | 403 kts | 317° |
| 2026-05-07 20:05 | 54.97009 | 37.87145 | 21485 ft | 400 kts | 317° |
| 2026-05-07 20:05 | 54.99127 | 37.84108 | 20612 ft | 404 kts | 317° |
| 2026-05-07 20:05 | 55.01389 | 37.80847 | 19744 ft | 440 kts | 317° |
| 2026-05-07 20:05 | 55.03796 | 37.77378 | 18896 ft | 451 kts | 317° |
| 2026-05-07 20:06 | 55.06211 | 37.73910 | 18055 ft | 446 kts | 317° |
| 2026-05-07 20:06 | 55.08603 | 37.70479 | 17121 ft | 442 kts | 317° |
| 2026-05-07 20:06 | 55.10968 | 37.67082 | 16227 ft | 437 kts | 317° |
| 2026-05-07 20:06 | 55.13301 | 37.63722 | 15347 ft | 432 kts | 316° |
| 2026-05-07 20:07 | 55.15582 | 37.60428 | 14505 ft | 428 kts | 316° |
| 2026-05-07 20:07 | 55.17866 | 37.57122 | 13654 ft | 424 kts | 316° |
| 2026-05-07 20:07 | 55.20122 | 37.53850 | 12730 ft | 419 kts | 316° |
| 2026-05-07 20:07 | 55.22365 | 37.50590 | 11825 ft | 415 kts | 316° |
| 2026-05-07 20:08 | 55.24570 | 37.47381 | 10958 ft | 410 kts | 316° |
| 2026-05-07 20:08 | 55.26754 | 37.44198 | 10101 ft | 406 kts | 316° |
| 2026-05-07 20:08 | 55.28915 | 37.41043 | 9221 ft | 402 kts | 316° |
| 2026-05-07 20:08 | 55.31055 | 37.37910 | 8318 ft | 398 kts | 316° |
| 2026-05-07 20:09 | 55.33157 | 37.34790 | 7457 ft | 392 kts | 316° |
| 2026-05-07 20:09 | 55.35181 | 37.31765 | 6972 ft | 384 kts | 316° |
| 2026-05-07 20:09 | 55.37223 | 37.28708 | 6583 ft | 384 kts | 315° |
| 2026-05-07 20:10 | 55.41269 | 37.22653 | 5696 ft | 380 kts | 315° |
| 2026-05-07 20:10 | 55.43283 | 37.19640 | 5228 ft | 378 kts | 316° |
| 2026-05-07 20:10 | 55.45266 | 37.16676 | 4776 ft | 360 kts | 316° |
| 2026-05-07 20:10 | 55.47088 | 37.13969 | 4275 ft | 326 kts | 315° |
| 2026-05-07 20:11 | 55.48744 | 37.11539 | 3751 ft | 303 kts | 319° |
| 2026-05-07 20:11 | 55.50582 | 37.09964 | 3363 ft | 288 kts | 341° |
| 2026-05-07 20:11 | 55.52500 | 37.09322 | 3007 ft | 268 kts | 348° |
| 2026-05-07 20:11 | 55.54248 | 37.08898 | 2653 ft | 240 kts | 349° |
| 2026-05-07 20:12 | 55.55841 | 37.08791 | 2244 ft | 222 kts | 12° |
| 2026-05-07 20:12 | 55.57110 | 37.10127 | 1993 ft | 210 kts | 54° |
| 2026-05-07 20:12 | 55.57633 | 37.12375 | 1768 ft | 194 kts | 86° |
| 2026-05-07 20:12 | 55.57507 | 37.14644 | 1305 ft | 181 kts | 109° |
| 2026-05-07 20:13 | 55.57130 | 37.16707 | 1082 ft | 178 kts | 98° |
| 2026-05-07 20:13 | 55.57435 | 37.18768 | 1030 ft | 177 kts | 62° |
| 2026-05-07 20:13 | 55.57939 | 37.20779 | 940 ft | 180 kts | 69° |
| 2026-05-07 20:13 | 55.58412 | 37.22829 | 801 ft | 180 kts | 69° |
| 2026-05-07 20:14 | 55.58869 | 37.24870 | 691 ft | 170 kts | 68° |
| 2026-05-07 20:14 | 55.59232 | 37.26485 | 686 ft | 113 kts | 68° |
| 2026-05-07 20:14 | 55.59449 | 37.27442 | 691 ft | 67 kts | 68° |
| 2026-05-07 20:14 | 55.59582 | 37.27987 | 686 ft | 41 kts | 57° |
| 2026-05-07 20:15 | 55.59748 | 37.28283 | 687 ft | 22 kts | 40° |
| 2026-05-07 20:15 | 55.59793 | 37.28321 | 686 ft | 1 kts | 342° |
| 2026-05-07 20:15 | 55.59799 | 37.28309 | 684 ft | 3 kts | 315° |
| 2026-05-07 20:15 | 55.59805 | 37.28237 | 687 ft | 9 kts | 262° |
| 2026-05-07 20:16 | 55.59777 | 37.28085 | 686 ft | 17 kts | 250° |
| 2026-05-07 20:16 | 55.59727 | 37.27857 | 689 ft | 23 kts | 249° |
| 2026-05-07 20:16 | 55.59665 | 37.27569 | 686 ft | 25 kts | 249° |
| 2026-05-07 20:16 | 55.59605 | 37.27294 | 685 ft | 23 kts | 249° |
| 2026-05-07 20:17 | 55.59551 | 37.27044 | 683 ft | 21 kts | 249° |
| 2026-05-07 20:17 | 55.59502 | 37.26820 | 685 ft | 19 kts | 249° |
| 2026-05-07 20:17 | 55.59479 | 37.26698 | 686 ft | 2 kts | 267° |
| 2026-05-07 20:17 | 55.59477 | 37.26609 | 692 ft | 20 kts | 268° |
| 2026-05-07 20:18 | 55.59417 | 37.26276 | 685 ft | 29 kts | 249° |
| 2026-05-07 20:18 | 55.59372 | 37.26028 | 690 ft | 7 kts | 276° |
| 2026-05-07 20:18 | 55.59473 | 37.25887 | 685 ft | 27 kts | 338° |
| 2026-05-07 20:18 | 55.59630 | 37.25843 | 686 ft | 5 kts | 18° |
| 2026-05-07 20:19 | 55.59631 | 37.25843 | 686 ft | 0 kts | 19° |